sensor_id;sensor_type;location;lat;lon;timestamp;temperature;humidity
22526;DHT22;11429;50.842;4.386;2023-07-30T00:01:07;17.40;99.90
22526;DHT22;11429;50.842;4.386;2023-07-30T00:03:33;17.30;99.90
22526;DHT22;11429;50.842;4.386;2023-07-30T00:05:58;17.30;99.90
22526;DHT22;11429;50.842;4.386;2023-07-30T00:08:24;17.40;99.90
22526;DHT22;11429;50.842;4.386;2023-07-30T00:10:50;17.40;99.90
22526;DHT22;11429;50.842;4.386;2023-07-30T00:13:15;17.40;99.90
22526;DHT22;11429;50.842;4.386;2023-07-30T00:15:41;17.30;99.90
22526;DHT22;11429;50.842;4.386;2023-07-30T00:18:07;17.60;99.90
22526;DHT22;11429;50.842;4.386;2023-07-30T00:20:36;17.70;99.90
22526;DHT22;11429;50.842;4.386;2023-07-30T00:23:02;17.60;99.90
22526;DHT22;11429;50.842;4.386;2023-07-30T00:25:27;17.40;99.90
22526;DHT22;11429;50.842;4.386;2023-07-30T00:27:53;17.40;99.90
22526;DHT22;11429;50.842;4.386;2023-07-30T00:30:19;17.30;99.90
22526;DHT22;11429;50.842;4.386;2023-07-30T00:32:44;17.30;99.90
22526;DHT22;11429;50.842;4.386;2023-07-30T00:35:10;17.20;99.90
22526;DHT22;11429;50.842;4.386;2023-07-30T00:37:36;17.30;99.90
22526;DHT22;11429;50.842;4.386;2023-07-30T00:40:03;17.30;99.90
22526;DHT22;11429;50.842;4.386;2023-07-30T00:42:29;17.30;99.90
22526;DHT22;11429;50.842;4.386;2023-07-30T00:44:55;17.20;99.90
22526;DHT22;11429;50.842;4.386;2023-07-30T00:47:21;17.20;99.90
22526;DHT22;11429;50.842;4.386;2023-07-30T00:49:48;17.20;99.90
22526;DHT22;11429;50.842;4.386;2023-07-30T00:52:16;17.20;99.90
22526;DHT22;11429;50.842;4.386;2023-07-30T00:54:43;17.20;99.90
22526;DHT22;11429;50.842;4.386;2023-07-30T00:57:09;17.30;99.90
22526;DHT22;11429;50.842;4.386;2023-07-30T00:59:35;17.30;99.90
22526;DHT22;11429;50.842;4.386;2023-07-30T01:02:02;17.40;99.90
22526;DHT22;11429;50.842;4.386;2023-07-30T01:04:28;17.50;99.90
22526;DHT22;11429;50.842;4.386;2023-07-30T01:06:54;17.60;99.90
22526;DHT22;11429;50.842;4.386;2023-07-30T01:09:20;17.50;99.90
22526;DHT22;11429;50.842;4.386;2023-07-30T01:11:46;17.40;99.90
22526;DHT22;11429;50.842;4.386;2023-07-30T01:14:13;17.40;99.90
22526;DHT22;11429;50.842;4.386;2023-07-30T01:16:40;17.50;99.90
22526;DHT22;11429;50.842;4.386;2023-07-30T01:19:06;17.40;99.90
22526;DHT22;11429;50.842;4.386;2023-07-30T01:21:33;17.60;99.90
22526;DHT22;11429;50.842;4.386;2023-07-30T01:23:59;17.70;99.90
22526;DHT22;11429;50.842;4.386;2023-07-30T01:26:43;17.70;99.90
22526;DHT22;11429;50.842;4.386;2023-07-30T01:29:16;17.70;99.90
22526;DHT22;11429;50.842;4.386;2023-07-30T01:31:49;17.70;99.90
22526;DHT22;11429;50.842;4.386;2023-07-30T01:34:18;17.70;99.90
22526;DHT22;11429;50.842;4.386;2023-07-30T01:36:45;17.70;99.90
22526;DHT22;11429;50.842;4.386;2023-07-30T01:39:12;17.80;99.90
22526;DHT22;11429;50.842;4.386;2023-07-30T01:41:38;17.60;99.90
22526;DHT22;11429;50.842;4.386;2023-07-30T01:44:04;17.80;99.90
22526;DHT22;11429;50.842;4.386;2023-07-30T01:46:29;17.80;99.90
22526;DHT22;11429;50.842;4.386;2023-07-30T01:48:55;17.70;99.90
22526;DHT22;11429;50.842;4.386;2023-07-30T01:51:21;17.70;99.90
22526;DHT22;11429;50.842;4.386;2023-07-30T01:53:46;17.90;99.90
22526;DHT22;11429;50.842;4.386;2023-07-30T01:56:12;17.80;99.90
22526;DHT22;11429;50.842;4.386;2023-07-30T01:58:38;17.80;99.90
22526;DHT22;11429;50.842;4.386;2023-07-30T02:01:03;17.70;99.90
22526;DHT22;11429;50.842;4.386;2023-07-30T02:03:29;17.70;99.90
22526;DHT22;11429;50.842;4.386;2023-07-30T02:05:54;17.70;99.90
22526;DHT22;11429;50.842;4.386;2023-07-30T02:08:20;17.70;99.90
22526;DHT22;11429;50.842;4.386;2023-07-30T02:10:55;17.70;99.90
22526;DHT22;11429;50.842;4.386;2023-07-30T02:13:21;17.60;99.90
22526;DHT22;11429;50.842;4.386;2023-07-30T02:15:46;17.70;99.90
22526;DHT22;11429;50.842;4.386;2023-07-30T02:18:12;17.80;99.90
22526;DHT22;11429;50.842;4.386;2023-07-30T02:20:37;17.70;99.90
22526;DHT22;11429;50.842;4.386;2023-07-30T02:23:03;17.70;99.90
22526;DHT22;11429;50.842;4.386;2023-07-30T02:25:29;17.60;99.90
22526;DHT22;11429;50.842;4.386;2023-07-30T02:27:55;17.70;99.90
22526;DHT22;11429;50.842;4.386;2023-07-30T02:30:20;17.60;99.90
22526;DHT22;11429;50.842;4.386;2023-07-30T02:32:46;17.40;99.90
22526;DHT22;11429;50.842;4.386;2023-07-30T02:35:11;17.50;99.90
22526;DHT22;11429;50.842;4.386;2023-07-30T02:37:37;17.60;99.90
22526;DHT22;11429;50.842;4.386;2023-07-30T02:40:03;17.60;99.90
22526;DHT22;11429;50.842;4.386;2023-07-30T02:42:30;17.50;99.90
22526;DHT22;11429;50.842;4.386;2023-07-30T02:44:56;17.40;99.90
22526;DHT22;11429;50.842;4.386;2023-07-30T02:47:22;17.30;99.90
22526;DHT22;11429;50.842;4.386;2023-07-30T02:49:48;17.30;99.90
22526;DHT22;11429;50.842;4.386;2023-07-30T02:52:13;17.30;99.90
22526;DHT22;11429;50.842;4.386;2023-07-30T02:54:39;17.40;99.90
22526;DHT22;11429;50.842;4.386;2023-07-30T02:57:05;17.30;99.90
22526;DHT22;11429;50.842;4.386;2023-07-30T02:59:30;17.30;99.90
22526;DHT22;11429;50.842;4.386;2023-07-30T03:01:56;17.30;99.90
22526;DHT22;11429;50.842;4.386;2023-07-30T03:04:22;17.30;99.90
22526;DHT22;11429;50.842;4.386;2023-07-30T03:06:47;17.40;99.90
22526;DHT22;11429;50.842;4.386;2023-07-30T03:09:13;17.30;99.90
22526;DHT22;11429;50.842;4.386;2023-07-30T03:11:38;17.20;99.90
22526;DHT22;11429;50.842;4.386;2023-07-30T03:14:04;17.20;99.90
22526;DHT22;11429;50.842;4.386;2023-07-30T03:16:30;17.00;99.90
22526;DHT22;11429;50.842;4.386;2023-07-30T03:18:55;17.00;99.90
22526;DHT22;11429;50.842;4.386;2023-07-30T03:21:21;17.00;99.90
22526;DHT22;11429;50.842;4.386;2023-07-30T03:23:47;17.00;99.90
22526;DHT22;11429;50.842;4.386;2023-07-30T03:26:13;17.20;99.90
22526;DHT22;11429;50.842;4.386;2023-07-30T03:28:39;17.30;99.90
22526;DHT22;11429;50.842;4.386;2023-07-30T03:31:05;17.30;99.90
22526;DHT22;11429;50.842;4.386;2023-07-30T03:33:31;17.30;99.90
22526;DHT22;11429;50.842;4.386;2023-07-30T03:35:56;17.10;99.90
22526;DHT22;11429;50.842;4.386;2023-07-30T03:38:22;17.10;99.90
22526;DHT22;11429;50.842;4.386;2023-07-30T03:40:48;17.20;99.90
22526;DHT22;11429;50.842;4.386;2023-07-30T03:43:13;17.20;99.90
22526;DHT22;11429;50.842;4.386;2023-07-30T03:45:39;17.20;99.90
22526;DHT22;11429;50.842;4.386;2023-07-30T03:48:05;17.30;99.90
22526;DHT22;11429;50.842;4.386;2023-07-30T03:50:31;17.30;99.90
22526;DHT22;11429;50.842;4.386;2023-07-30T03:52:56;17.30;99.90
22526;DHT22;11429;50.842;4.386;2023-07-30T03:55:23;17.40;99.90
22526;DHT22;11429;50.842;4.386;2023-07-30T03:57:49;17.30;99.90
22526;DHT22;11429;50.842;4.386;2023-07-30T04:00:15;17.40;99.90
22526;DHT22;11429;50.842;4.386;2023-07-30T04:02:41;17.50;99.90
22526;DHT22;11429;50.842;4.386;2023-07-30T04:05:06;17.50;99.90
22526;DHT22;11429;50.842;4.386;2023-07-30T04:07:32;17.50;99.90
22526;DHT22;11429;50.842;4.386;2023-07-30T04:09:58;17.50;99.90
22526;DHT22;11429;50.842;4.386;2023-07-30T04:12:23;17.30;99.90
22526;DHT22;11429;50.842;4.386;2023-07-30T04:14:49;17.20;99.90
22526;DHT22;11429;50.842;4.386;2023-07-30T04:17:15;17.10;99.90
22526;DHT22;11429;50.842;4.386;2023-07-30T04:19:40;17.00;99.90
22526;DHT22;11429;50.842;4.386;2023-07-30T04:22:06;17.20;99.90
22526;DHT22;11429;50.842;4.386;2023-07-30T04:24:32;17.20;99.90
22526;DHT22;11429;50.842;4.386;2023-07-30T04:26:57;17.20;99.90
22526;DHT22;11429;50.842;4.386;2023-07-30T04:29:23;17.20;99.90
22526;DHT22;11429;50.842;4.386;2023-07-30T04:31:48;17.20;99.90
22526;DHT22;11429;50.842;4.386;2023-07-30T04:34:14;17.20;99.90
22526;DHT22;11429;50.842;4.386;2023-07-30T04:36:40;17.10;99.90
22526;DHT22;11429;50.842;4.386;2023-07-30T04:39:06;17.00;99.90
22526;DHT22;11429;50.842;4.386;2023-07-30T04:41:31;17.20;99.90
22526;DHT22;11429;50.842;4.386;2023-07-30T04:43:57;17.30;99.90
22526;DHT22;11429;50.842;4.386;2023-07-30T04:46:23;17.30;99.90
22526;DHT22;11429;50.842;4.386;2023-07-30T04:48:48;17.30;99.90
22526;DHT22;11429;50.842;4.386;2023-07-30T04:51:14;17.10;99.90
22526;DHT22;11429;50.842;4.386;2023-07-30T04:53:40;17.30;99.90
22526;DHT22;11429;50.842;4.386;2023-07-30T04:56:05;17.10;99.90
22526;DHT22;11429;50.842;4.386;2023-07-30T04:58:31;17.10;99.90
22526;DHT22;11429;50.842;4.386;2023-07-30T05:00:57;17.10;99.90
22526;DHT22;11429;50.842;4.386;2023-07-30T05:03:22;17.10;99.90
22526;DHT22;11429;50.842;4.386;2023-07-30T05:05:48;17.10;99.90
22526;DHT22;11429;50.842;4.386;2023-07-30T05:08:14;17.00;99.90
22526;DHT22;11429;50.842;4.386;2023-07-30T05:10:39;17.10;99.90
22526;DHT22;11429;50.842;4.386;2023-07-30T05:13:05;17.20;99.90
22526;DHT22;11429;50.842;4.386;2023-07-30T05:15:31;17.20;99.90
22526;DHT22;11429;50.842;4.386;2023-07-30T05:17:56;17.30;99.90
22526;DHT22;11429;50.842;4.386;2023-07-30T05:20:22;17.20;99.90
22526;DHT22;11429;50.842;4.386;2023-07-30T05:22:47;17.20;99.90
22526;DHT22;11429;50.842;4.386;2023-07-30T05:25:13;17.20;99.90
22526;DHT22;11429;50.842;4.386;2023-07-30T05:27:39;17.20;99.90
22526;DHT22;11429;50.842;4.386;2023-07-30T05:30:05;17.30;99.90
22526;DHT22;11429;50.842;4.386;2023-07-30T05:32:31;17.30;99.90
22526;DHT22;11429;50.842;4.386;2023-07-30T05:34:56;17.30;99.90
22526;DHT22;11429;50.842;4.386;2023-07-30T05:37:22;17.20;99.90
22526;DHT22;11429;50.842;4.386;2023-07-30T05:39:48;17.30;99.90
22526;DHT22;11429;50.842;4.386;2023-07-30T05:42:14;17.30;99.90
22526;DHT22;11429;50.842;4.386;2023-07-30T05:44:40;17.50;99.90
22526;DHT22;11429;50.842;4.386;2023-07-30T05:47:05;17.40;99.90
22526;DHT22;11429;50.842;4.386;2023-07-30T05:49:31;17.40;99.90
22526;DHT22;11429;50.842;4.386;2023-07-30T05:51:56;17.40;99.90
22526;DHT22;11429;50.842;4.386;2023-07-30T05:54:22;17.60;99.90
22526;DHT22;11429;50.842;4.386;2023-07-30T05:56:48;17.50;99.90
22526;DHT22;11429;50.842;4.386;2023-07-30T05:59:13;17.80;99.90
22526;DHT22;11429;50.842;4.386;2023-07-30T06:01:39;17.60;99.90
22526;DHT22;11429;50.842;4.386;2023-07-30T06:04:05;17.70;99.90
22526;DHT22;11429;50.842;4.386;2023-07-30T06:06:31;17.60;99.90
22526;DHT22;11429;50.842;4.386;2023-07-30T06:08:56;17.70;99.90
22526;DHT22;11429;50.842;4.386;2023-07-30T06:11:22;17.60;99.90
22526;DHT22;11429;50.842;4.386;2023-07-30T06:13:48;17.50;99.90
22526;DHT22;11429;50.842;4.386;2023-07-30T06:16:14;17.50;99.90
22526;DHT22;11429;50.842;4.386;2023-07-30T06:18:40;17.60;99.90
22526;DHT22;11429;50.842;4.386;2023-07-30T06:21:06;17.70;99.90
22526;DHT22;11429;50.842;4.386;2023-07-30T06:23:31;17.70;99.90
22526;DHT22;11429;50.842;4.386;2023-07-30T06:25:57;17.70;99.90
22526;DHT22;11429;50.842;4.386;2023-07-30T06:28:23;17.60;99.90
22526;DHT22;11429;50.842;4.386;2023-07-30T06:30:49;17.70;99.90
22526;DHT22;11429;50.842;4.386;2023-07-30T06:33:15;17.70;99.90
22526;DHT22;11429;50.842;4.386;2023-07-30T06:35:40;17.70;99.90
22526;DHT22;11429;50.842;4.386;2023-07-30T06:38:08;17.90;99.90
22526;DHT22;11429;50.842;4.386;2023-07-30T06:40:34;18.20;99.90
22526;DHT22;11429;50.842;4.386;2023-07-30T06:43:00;18.20;99.90
22526;DHT22;11429;50.842;4.386;2023-07-30T06:45:26;18.40;99.90
22526;DHT22;11429;50.842;4.386;2023-07-30T06:47:51;18.60;99.90
22526;DHT22;11429;50.842;4.386;2023-07-30T06:50:17;18.60;99.90
22526;DHT22;11429;50.842;4.386;2023-07-30T06:52:43;18.60;99.90
22526;DHT22;11429;50.842;4.386;2023-07-30T06:55:09;19.00;99.90
22526;DHT22;11429;50.842;4.386;2023-07-30T06:57:34;19.40;99.90
22526;DHT22;11429;50.842;4.386;2023-07-30T07:00:00;19.40;99.90
22526;DHT22;11429;50.842;4.386;2023-07-30T07:02:26;20.40;99.90
22526;DHT22;11429;50.842;4.386;2023-07-30T07:04:54;22.50;99.90
22526;DHT22;11429;50.842;4.386;2023-07-30T07:07:19;23.40;99.90
22526;DHT22;11429;50.842;4.386;2023-07-30T07:09:46;22.70;99.90
22526;DHT22;11429;50.842;4.386;2023-07-30T07:12:11;22.60;99.90
22526;DHT22;11429;50.842;4.386;2023-07-30T07:14:37;23.10;99.90
22526;DHT22;11429;50.842;4.386;2023-07-30T07:17:03;23.30;99.90
22526;DHT22;11429;50.842;4.386;2023-07-30T07:19:29;23.30;99.90
22526;DHT22;11429;50.842;4.386;2023-07-30T07:21:54;24.70;99.90
22526;DHT22;11429;50.842;4.386;2023-07-30T07:24:20;23.50;99.90
22526;DHT22;11429;50.842;4.386;2023-07-30T07:26:45;23.70;99.90
22526;DHT22;11429;50.842;4.386;2023-07-30T07:29:11;26.00;99.90
22526;DHT22;11429;50.842;4.386;2023-07-30T07:31:37;26.80;99.90
22526;DHT22;11429;50.842;4.386;2023-07-30T07:34:02;26.50;99.90
22526;DHT22;11429;50.842;4.386;2023-07-30T07:36:28;26.00;99.90
22526;DHT22;11429;50.842;4.386;2023-07-30T07:38:54;24.80;99.90
22526;DHT22;11429;50.842;4.386;2023-07-30T07:41:19;24.00;99.90
22526;DHT22;11429;50.842;4.386;2023-07-30T07:43:46;23.30;99.90
22526;DHT22;11429;50.842;4.386;2023-07-30T07:46:12;22.80;99.90
22526;DHT22;11429;50.842;4.386;2023-07-30T07:48:41;22.30;99.90
22526;DHT22;11429;50.842;4.386;2023-07-30T07:51:09;21.90;99.90
22526;DHT22;11429;50.842;4.386;2023-07-30T07:53:36;21.90;99.90
22526;DHT22;11429;50.842;4.386;2023-07-30T07:56:02;22.30;99.90
22526;DHT22;11429;50.842;4.386;2023-07-30T07:58:29;22.40;99.90
22526;DHT22;11429;50.842;4.386;2023-07-30T08:00:55;22.40;99.90
22526;DHT22;11429;50.842;4.386;2023-07-30T08:03:21;22.50;99.90
22526;DHT22;11429;50.842;4.386;2023-07-30T08:05:48;23.40;99.90
22526;DHT22;11429;50.842;4.386;2023-07-30T08:08:14;24.00;99.90
22526;DHT22;11429;50.842;4.386;2023-07-30T08:10:40;23.90;99.90
22526;DHT22;11429;50.842;4.386;2023-07-30T08:13:11;23.20;99.90
22526;DHT22;11429;50.842;4.386;2023-07-30T08:15:37;22.40;99.90
22526;DHT22;11429;50.842;4.386;2023-07-30T08:18:03;22.10;99.90
22526;DHT22;11429;50.842;4.386;2023-07-30T08:20:28;21.80;99.90
22526;DHT22;11429;50.842;4.386;2023-07-30T08:22:54;21.70;99.90
22526;DHT22;11429;50.842;4.386;2023-07-30T08:25:20;21.80;99.90
22526;DHT22;11429;50.842;4.386;2023-07-30T08:27:46;22.10;99.90
22526;DHT22;11429;50.842;4.386;2023-07-30T08:30:12;22.30;99.90
22526;DHT22;11429;50.842;4.386;2023-07-30T08:32:38;22.30;99.90
22526;DHT22;11429;50.842;4.386;2023-07-30T08:35:04;21.90;99.90
22526;DHT22;11429;50.842;4.386;2023-07-30T08:37:30;21.80;99.90
22526;DHT22;11429;50.842;4.386;2023-07-30T08:39:56;21.70;99.90
22526;DHT22;11429;50.842;4.386;2023-07-30T08:42:22;21.60;99.90
22526;DHT22;11429;50.842;4.386;2023-07-30T08:44:48;21.80;99.90
22526;DHT22;11429;50.842;4.386;2023-07-30T08:47:13;22.20;99.90
22526;DHT22;11429;50.842;4.386;2023-07-30T08:49:39;21.50;99.90
22526;DHT22;11429;50.842;4.386;2023-07-30T08:52:08;21.40;99.90
22526;DHT22;11429;50.842;4.386;2023-07-30T08:54:34;21.30;99.90
22526;DHT22;11429;50.842;4.386;2023-07-30T08:57:02;21.20;99.90
22526;DHT22;11429;50.842;4.386;2023-07-30T08:59:31;21.10;99.90
22526;DHT22;11429;50.842;4.386;2023-07-30T09:01:59;21.00;99.90
22526;DHT22;11429;50.842;4.386;2023-07-30T09:04:26;21.20;99.90
22526;DHT22;11429;50.842;4.386;2023-07-30T09:06:54;20.90;99.90
22526;DHT22;11429;50.842;4.386;2023-07-30T09:09:20;20.80;99.90
22526;DHT22;11429;50.842;4.386;2023-07-30T09:11:54;21.10;99.90
22526;DHT22;11429;50.842;4.386;2023-07-30T09:14:20;21.30;99.90
22526;DHT22;11429;50.842;4.386;2023-07-30T09:16:47;21.20;99.90
22526;DHT22;11429;50.842;4.386;2023-07-30T09:19:19;21.10;99.90
22526;DHT22;11429;50.842;4.386;2023-07-30T09:21:44;21.00;99.90
22526;DHT22;11429;50.842;4.386;2023-07-30T09:24:10;20.70;99.90
22526;DHT22;11429;50.842;4.386;2023-07-30T09:26:42;20.70;99.90
22526;DHT22;11429;50.842;4.386;2023-07-30T09:29:09;20.90;99.90
22526;DHT22;11429;50.842;4.386;2023-07-30T09:31:54;20.90;99.90
22526;DHT22;11429;50.842;4.386;2023-07-30T09:34:24;21.00;99.90
22526;DHT22;11429;50.842;4.386;2023-07-30T09:36:52;21.00;99.90
22526;DHT22;11429;50.842;4.386;2023-07-30T09:39:23;21.20;99.90
22526;DHT22;11429;50.842;4.386;2023-07-30T09:41:53;21.20;99.90
22526;DHT22;11429;50.842;4.386;2023-07-30T09:44:24;20.90;99.90
22526;DHT22;11429;50.842;4.386;2023-07-30T09:46:50;21.00;99.90
22526;DHT22;11429;50.842;4.386;2023-07-30T09:49:17;20.90;99.90
22526;DHT22;11429;50.842;4.386;2023-07-30T09:51:43;20.70;99.90
22526;DHT22;11429;50.842;4.386;2023-07-30T09:54:14;20.50;99.90
22526;DHT22;11429;50.842;4.386;2023-07-30T09:56:41;20.40;99.90
22526;DHT22;11429;50.842;4.386;2023-07-30T09:59:08;20.20;99.90
22526;DHT22;11429;50.842;4.386;2023-07-30T10:01:42;20.20;99.90
22526;DHT22;11429;50.842;4.386;2023-07-30T10:04:09;20.30;99.90
22526;DHT22;11429;50.842;4.386;2023-07-30T10:06:41;20.50;99.90
22526;DHT22;11429;50.842;4.386;2023-07-30T10:09:08;20.60;99.90
22526;DHT22;11429;50.842;4.386;2023-07-30T10:11:36;20.40;99.90
22526;DHT22;11429;50.842;4.386;2023-07-30T10:14:03;20.40;99.90
22526;DHT22;11429;50.842;4.386;2023-07-30T10:16:29;20.50;99.90
22526;DHT22;11429;50.842;4.386;2023-07-30T10:18:57;20.50;99.90
22526;DHT22;11429;50.842;4.386;2023-07-30T10:21:25;20.90;99.90
22526;DHT22;11429;50.842;4.386;2023-07-30T10:24:02;21.30;99.90
22526;DHT22;11429;50.842;4.386;2023-07-30T10:26:31;22.40;99.90
22526;DHT22;11429;50.842;4.386;2023-07-30T10:29:17;24.70;99.90
22526;DHT22;11429;50.842;4.386;2023-07-30T10:31:57;26.50;99.90
22526;DHT22;11429;50.842;4.386;2023-07-30T10:34:26;27.20;99.90
22526;DHT22;11429;50.842;4.386;2023-07-30T10:36:55;28.00;99.90
22526;DHT22;11429;50.842;4.386;2023-07-30T10:39:29;27.80;99.90
22526;DHT22;11429;50.842;4.386;2023-07-30T10:41:57;27.40;99.90
22526;DHT22;11429;50.842;4.386;2023-07-30T10:44:34;26.40;99.90
22526;DHT22;11429;50.842;4.386;2023-07-30T10:47:01;25.10;99.90
22526;DHT22;11429;50.842;4.386;2023-07-30T10:49:27;24.30;99.90
22526;DHT22;11429;50.842;4.386;2023-07-30T10:51:54;23.50;99.90
22526;DHT22;11429;50.842;4.386;2023-07-30T10:54:20;22.70;99.90
22526;DHT22;11429;50.842;4.386;2023-07-30T10:56:46;22.10;99.90
22526;DHT22;11429;50.842;4.386;2023-07-30T10:59:13;21.80;99.90
22526;DHT22;11429;50.842;4.386;2023-07-30T11:01:40;22.00;99.90
22526;DHT22;11429;50.842;4.386;2023-07-30T11:04:18;22.10;99.90
22526;DHT22;11429;50.842;4.386;2023-07-30T11:06:49;22.60;99.90
22526;DHT22;11429;50.842;4.386;2023-07-30T11:09:33;23.50;99.90
22526;DHT22;11429;50.842;4.386;2023-07-30T11:11:59;24.90;99.90
22526;DHT22;11429;50.842;4.386;2023-07-30T11:14:25;25.90;99.90
22526;DHT22;11429;50.842;4.386;2023-07-30T11:16:54;26.10;99.90
22526;DHT22;11429;50.842;4.386;2023-07-30T11:19:20;26.00;99.90
22526;DHT22;11429;50.842;4.386;2023-07-30T11:21:47;26.00;99.90
22526;DHT22;11429;50.842;4.386;2023-07-30T11:24:13;25.50;99.90
22526;DHT22;11429;50.842;4.386;2023-07-30T11:26:39;24.40;99.90
22526;DHT22;11429;50.842;4.386;2023-07-30T11:29:19;24.50;99.90
22526;DHT22;11429;50.842;4.386;2023-07-30T11:31:46;25.40;99.90
22526;DHT22;11429;50.842;4.386;2023-07-30T11:34:15;26.40;99.90
22526;DHT22;11429;50.842;4.386;2023-07-30T11:36:42;26.90;99.90
22526;DHT22;11429;50.842;4.386;2023-07-30T11:39:08;26.50;99.90
22526;DHT22;11429;50.842;4.386;2023-07-30T11:41:35;26.00;99.90
22526;DHT22;11429;50.842;4.386;2023-07-30T11:44:02;25.90;99.90
22526;DHT22;11429;50.842;4.386;2023-07-30T11:46:28;25.70;99.90
22526;DHT22;11429;50.842;4.386;2023-07-30T11:49:14;25.60;99.90
22526;DHT22;11429;50.842;4.386;2023-07-30T11:51:42;25.40;99.90
22526;DHT22;11429;50.842;4.386;2023-07-30T11:54:17;25.40;99.90
22526;DHT22;11429;50.842;4.386;2023-07-30T11:56:43;25.80;99.90
22526;DHT22;11429;50.842;4.386;2023-07-30T11:59:09;25.60;99.90
22526;DHT22;11429;50.842;4.386;2023-07-30T12:01:36;26.00;99.90
22526;DHT22;11429;50.842;4.386;2023-07-30T12:04:04;25.70;99.90
22526;DHT22;11429;50.842;4.386;2023-07-30T12:06:47;25.60;99.90
22526;DHT22;11429;50.842;4.386;2023-07-30T12:12:17;25.00;99.90
22526;DHT22;11429;50.842;4.386;2023-07-30T12:14:43;25.20;99.90
22526;DHT22;11429;50.842;4.386;2023-07-30T12:17:10;25.50;99.90
22526;DHT22;11429;50.842;4.386;2023-07-30T12:19:35;25.10;99.90
22526;DHT22;11429;50.842;4.386;2023-07-30T12:22:02;25.10;99.90
22526;DHT22;11429;50.842;4.386;2023-07-30T12:24:28;25.00;99.90
22526;DHT22;11429;50.842;4.386;2023-07-30T12:26:53;24.70;99.90
22526;DHT22;11429;50.842;4.386;2023-07-30T12:29:19;25.00;99.90
22526;DHT22;11429;50.842;4.386;2023-07-30T12:31:45;24.80;99.90
22526;DHT22;11429;50.842;4.386;2023-07-30T12:34:12;25.00;99.90
22526;DHT22;11429;50.842;4.386;2023-07-30T12:36:37;25.00;99.90
22526;DHT22;11429;50.842;4.386;2023-07-30T12:39:03;24.50;99.90
22526;DHT22;11429;50.842;4.386;2023-07-30T12:41:29;24.50;99.90
22526;DHT22;11429;50.842;4.386;2023-07-30T12:43:56;24.30;99.90
22526;DHT22;11429;50.842;4.386;2023-07-30T12:46:22;24.10;99.90
22526;DHT22;11429;50.842;4.386;2023-07-30T12:48:48;24.10;99.90
22526;DHT22;11429;50.842;4.386;2023-07-30T12:51:14;24.20;99.90
22526;DHT22;11429;50.842;4.386;2023-07-30T12:53:40;24.40;99.90
22526;DHT22;11429;50.842;4.386;2023-07-30T12:56:06;25.00;99.90
22526;DHT22;11429;50.842;4.386;2023-07-30T12:58:32;24.90;99.90
22526;DHT22;11429;50.842;4.386;2023-07-30T13:00:57;24.80;99.90
22526;DHT22;11429;50.842;4.386;2023-07-30T13:03:23;24.70;99.90
22526;DHT22;11429;50.842;4.386;2023-07-30T13:05:49;24.90;99.90
22526;DHT22;11429;50.842;4.386;2023-07-30T13:08:14;24.90;99.90
22526;DHT22;11429;50.842;4.386;2023-07-30T13:10:40;24.90;99.90
22526;DHT22;11429;50.842;4.386;2023-07-30T13:13:06;24.70;99.90
22526;DHT22;11429;50.842;4.386;2023-07-30T13:15:31;24.40;99.90
22526;DHT22;11429;50.842;4.386;2023-07-30T13:17:57;24.40;99.90
22526;DHT22;11429;50.842;4.386;2023-07-30T13:20:23;24.50;99.90
22526;DHT22;11429;50.842;4.386;2023-07-30T13:22:50;24.30;99.90
22526;DHT22;11429;50.842;4.386;2023-07-30T13:25:16;24.30;99.90
22526;DHT22;11429;50.842;4.386;2023-07-30T13:27:42;24.10;99.90
22526;DHT22;11429;50.842;4.386;2023-07-30T13:30:08;24.00;99.90
22526;DHT22;11429;50.842;4.386;2023-07-30T13:32:34;24.00;99.90
22526;DHT22;11429;50.842;4.386;2023-07-30T13:34:59;24.10;99.90
22526;DHT22;11429;50.842;4.386;2023-07-30T13:37:25;24.30;99.90
22526;DHT22;11429;50.842;4.386;2023-07-30T13:39:51;24.50;99.90
22526;DHT22;11429;50.842;4.386;2023-07-30T13:42:16;24.70;99.90
22526;DHT22;11429;50.842;4.386;2023-07-30T13:44:42;24.80;99.90
22526;DHT22;11429;50.842;4.386;2023-07-30T13:47:08;24.90;99.90
22526;DHT22;11429;50.842;4.386;2023-07-30T13:49:34;25.00;99.90
22526;DHT22;11429;50.842;4.386;2023-07-30T13:52:00;24.90;99.90
22526;DHT22;11429;50.842;4.386;2023-07-30T13:54:25;24.60;99.90
22526;DHT22;11429;50.842;4.386;2023-07-30T13:56:51;24.40;99.90
22526;DHT22;11429;50.842;4.386;2023-07-30T13:59:16;24.30;99.90
22526;DHT22;11429;50.842;4.386;2023-07-30T14:01:42;24.50;99.90
22526;DHT22;11429;50.842;4.386;2023-07-30T14:04:08;24.30;99.90
22526;DHT22;11429;50.842;4.386;2023-07-30T14:06:33;24.30;99.90
22526;DHT22;11429;50.842;4.386;2023-07-30T14:08:59;24.30;99.90
22526;DHT22;11429;50.842;4.386;2023-07-30T14:11:26;24.70;99.90
22526;DHT22;11429;50.842;4.386;2023-07-30T14:13:53;24.90;99.90
22526;DHT22;11429;50.842;4.386;2023-07-30T14:16:18;24.80;99.90
22526;DHT22;11429;50.842;4.386;2023-07-30T14:18:44;24.50;99.90
22526;DHT22;11429;50.842;4.386;2023-07-30T14:21:10;24.30;99.90
22526;DHT22;11429;50.842;4.386;2023-07-30T14:23:37;24.40;99.90
22526;DHT22;11429;50.842;4.386;2023-07-30T14:26:03;24.10;99.90
22526;DHT22;11429;50.842;4.386;2023-07-30T14:28:29;24.10;99.90
22526;DHT22;11429;50.842;4.386;2023-07-30T14:30:55;24.00;99.90
22526;DHT22;11429;50.842;4.386;2023-07-30T14:33:20;24.10;99.90
22526;DHT22;11429;50.842;4.386;2023-07-30T14:35:46;24.50;99.90
22526;DHT22;11429;50.842;4.386;2023-07-30T14:38:12;24.70;99.90
22526;DHT22;11429;50.842;4.386;2023-07-30T14:40:38;24.60;99.90
22526;DHT22;11429;50.842;4.386;2023-07-30T14:43:04;24.50;99.90
22526;DHT22;11429;50.842;4.386;2023-07-30T14:45:30;24.30;99.90
22526;DHT22;11429;50.842;4.386;2023-07-30T14:47:56;23.90;99.90
22526;DHT22;11429;50.842;4.386;2023-07-30T14:50:22;24.00;99.90
22526;DHT22;11429;50.842;4.386;2023-07-30T14:52:48;23.90;99.90
22526;DHT22;11429;50.842;4.386;2023-07-30T14:55:14;23.80;99.90
22526;DHT22;11429;50.842;4.386;2023-07-30T14:57:41;23.70;99.90
22526;DHT22;11429;50.842;4.386;2023-07-30T15:00:10;23.50;99.90
22526;DHT22;11429;50.842;4.386;2023-07-30T15:02:39;23.50;99.90
22526;DHT22;11429;50.842;4.386;2023-07-30T15:05:06;23.30;99.90
22526;DHT22;11429;50.842;4.386;2023-07-30T15:07:34;23.10;99.90
22526;DHT22;11429;50.842;4.386;2023-07-30T15:10:00;23.40;99.90
22526;DHT22;11429;50.842;4.386;2023-07-30T15:12:26;23.40;99.90
22526;DHT22;11429;50.842;4.386;2023-07-30T15:14:52;23.70;99.90
22526;DHT22;11429;50.842;4.386;2023-07-30T15:17:18;23.60;99.90
22526;DHT22;11429;50.842;4.386;2023-07-30T15:19:43;23.30;99.90
22526;DHT22;11429;50.842;4.386;2023-07-30T15:22:12;23.10;99.90
22526;DHT22;11429;50.842;4.386;2023-07-30T15:24:38;22.80;99.90
22526;DHT22;11429;50.842;4.386;2023-07-30T15:27:04;22.60;99.90
22526;DHT22;11429;50.842;4.386;2023-07-30T15:29:30;22.70;99.90